Time;durP1;ratioP1;P1;durP2;ratioP2;P2;SDS_P1;SDS_P2;PMS_P1;PMS_P2;Temp;Humidity;BMP_temperature;BMP_pressure;BME280_temperature;BME280_humidity;BME280_pressure;Samples;Min_cycle;Max_cycle;Signal;HPM_P1;HPM_P2
2021/06/10 00:02:17;;;;;;;6.63;4.90;;;19.90;57.30;;;;;;5054542;28;20409;-76
2021/06/10 00:04:43;;;;;;;6.63;5.07;;;19.80;57.50;;;;;;5053223;28;20507;-78
2021/06/10 00:07:09;;;;;;;5.60;5.07;;;19.80;57.60;;;;;;5053618;28;20459;-76
2021/06/10 00:09:35;;;;;;;5.80;5.03;;;19.80;58.10;;;;;;5053102;28;20180;-76
2021/06/10 00:12:00;;;;;;;7.93;5.60;;;19.80;58.60;;;;;;5053417;28;20207;-78
2021/06/10 00:14:27;;;;;;;6.90;6.20;;;19.70;59.00;;;;;;5053350;28;20167;-77
2021/06/10 00:16:53;;;;;;;5.63;5.13;;;19.70;59.40;;;;;;5057504;28;20203;-77
2021/06/10 00:19:18;;;;;;;8.53;5.60;;;19.60;59.60;;;;;;5057769;28;20926;-77
2021/06/10 00:21:45;;;;;;;9.40;6.83;;;19.60;59.90;;;;;;5055527;28;20606;-77
2021/06/10 00:24:10;;;;;;;7.30;5.80;;;19.50;60.30;;;;;;5053048;28;20595;-77
2021/06/10 00:26:36;;;;;;;6.30;5.70;;;19.50;60.70;;;;;;5052262;28;20445;-78
2021/06/10 00:29:03;;;;;;;7.93;7.13;;;19.40;61.10;;;;;;5055439;28;20174;-77
2021/06/10 00:31:31;;;;;;;7.63;6.17;;;19.40;61.50;;;;;;5052889;28;20257;-77
2021/06/10 00:33:56;;;;;;;10.00;6.40;;;19.30;61.90;;;;;;5055331;28;20977;-77
2021/06/10 00:36:22;;;;;;;8.90;6.90;;;19.30;62.30;;;;;;5052858;28;20529;-76
2021/06/10 00:38:48;;;;;;;8.83;7.87;;;19.30;62.70;;;;;;5054593;28;20201;-76
2021/06/10 00:41:14;;;;;;;9.00;7.50;;;19.30;63.00;;;;;;5052891;28;20644;-75
2021/06/10 00:43:41;;;;;;;10.70;8.00;;;19.20;63.10;;;;;;5055200;28;20423;-77
2021/06/10 00:46:07;;;;;;;8.00;7.17;;;19.20;63.40;;;;;;5053226;28;20442;-75
2021/06/10 00:48:34;;;;;;;7.70;6.90;;;19.20;63.60;;;;;;5058635;28;20957;-77
2021/06/10 00:51:01;;;;;;;9.80;7.07;;;19.20;64.60;;;;;;5058511;28;20190;-76
2021/06/10 00:53:26;;;;;;;6.93;6.33;;;19.10;63.90;;;;;;5055256;28;20452;-77
2021/06/10 00:55:55;;;;;;;10.63;7.30;;;19.10;64.10;;;;;;5056551;28;20447;-77
2021/06/10 00:58:22;;;;;;;9.00;6.50;;;19.10;64.10;;;;;;5056059;28;20172;-77
2021/06/10 01:00:48;;;;;;;8.27;7.10;;;19.10;64.00;;;;;;5052376;28;20403;-76
2021/06/10 01:03:14;;;;;;;9.10;8.20;;;19.00;64.00;;;;;;5052458;28;20422;-76
2021/06/10 01:05:42;;;;;;;7.90;6.70;;;19.00;64.20;;;;;;5034847;28;20436;-77
2021/06/10 01:08:10;;;;;;;7.73;6.90;;;19.00;64.20;;;;;;5053638;28;20428;-76
2021/06/10 01:10:53;;;;;;;7.63;6.63;;;19.00;64.10;;;;;;5052395;28;20431;-76
2021/06/10 01:13:47;;;;;;;8.10;7.30;;;19.00;64.10;;;;;;5056279;28;20456;-77
2021/06/10 01:16:18;;;;;;;6.53;5.90;;;19.00;63.90;;;;;;5036552;28;20535;-77
2021/06/10 01:18:46;;;;;;;8.13;6.83;;;19.10;63.80;;;;;;5052529;28;20434;-76
2021/06/10 01:21:12;;;;;;;6.80;6.03;;;19.10;63.50;;;;;;5035021;28;20830;-77
2021/06/10 01:24:00;;;;;;;7.57;6.77;;;19.20;63.30;;;;;;5035540;28;20514;-77
2021/06/10 01:26:49;;;;;;;7.70;6.93;;;19.30;62.90;;;;;;5032786;28;20560;-76
2021/06/10 01:29:16;;;;;;;10.83;6.50;;;19.30;62.80;;;;;;5032793;28;20422;-76
2021/06/10 01:31:42;;;;;;;8.60;6.90;;;19.30;63.10;;;;;;5013997;28;20417;-76
2021/06/10 01:34:10;;;;;;;8.30;6.47;;;19.30;63.30;;;;;;5014721;28;20469;-77
2021/06/10 01:36:39;;;;;;;9.53;7.20;;;19.30;62.90;;;;;;4997154;28;20444;-75
2021/06/10 01:39:08;;;;;;;10.93;6.47;;;19.30;62.30;;;;;;5032041;28;20421;-76
2021/06/10 01:41:35;;;;;;;6.77;6.17;;;19.40;62.40;;;;;;5030993;28;20492;-76
2021/06/10 01:44:03;;;;;;;6.80;6.20;;;19.40;62.00;;;;;;5031830;28;20445;-76
2021/06/10 01:46:31;;;;;;;7.27;6.60;;;19.40;61.90;;;;;;5049281;28;20476;-76
2021/06/10 01:48:57;;;;;;;6.83;6.23;;;19.30;61.50;;;;;;5052273;28;20410;-76
2021/06/10 01:51:27;;;;;;;7.17;6.40;;;19.30;61.30;;;;;;5033924;28;20413;-76
2021/06/10 01:53:55;;;;;;;7.20;6.27;;;19.30;61.30;;;;;;5052150;28;20416;-76
2021/06/10 01:56:23;;;;;;;9.20;6.17;;;19.20;61.60;;;;;;5033540;28;20460;-77
2021/06/10 01:58:51;;;;;;;6.43;5.77;;;19.10;61.70;;;;;;5052340;28;20457;-77
2021/06/10 02:01:17;;;;;;;9.13;6.63;;;19.00;61.90;;;;;;5034567;28;20450;-77
2021/06/10 02:03:45;;;;;;;6.30;5.70;;;18.90;61.70;;;;;;5017819;28;20401;-77
2021/06/10 02:06:12;;;;;;;8.90;6.70;;;18.90;61.90;;;;;;5033456;28;20436;-77
2021/06/10 02:08:40;;;;;;;6.23;5.63;;;18.80;61.90;;;;;;5051871;28;20408;-77
2021/06/10 02:11:07;;;;;;;7.40;6.40;;;18.80;62.00;;;;;;5053143;28;20400;-77
2021/06/10 02:13:33;;;;;;;6.50;5.90;;;18.80;62.00;;;;;;5056328;28;20454;-77
2021/06/10 02:16:04;;;;;;;9.37;6.67;;;18.80;62.20;;;;;;5037949;28;20438;-76
2021/06/10 02:18:30;;;;;;;6.40;5.80;;;18.70;62.50;;;;;;5056304;28;20405;-76
2021/06/10 02:21:03;;;;;;;8.50;6.87;;;18.70;63.30;;;;;;5037458;28;20408;-77
2021/06/10 02:23:29;;;;;;;12.17;6.43;;;18.60;63.50;;;;;;5043238;28;20428;-76
2021/06/10 02:25:55;;;;;;;7.20;6.40;;;18.60;63.60;;;;;;5054714;28;20428;-77
2021/06/10 02:28:21;;;;;;;8.50;6.20;;;18.50;63.60;;;;;;5055377;28;20419;-77
2021/06/10 02:30:46;;;;;;;8.33;5.73;;;18.50;63.80;;;;;;5056602;28;20412;-76
2021/06/10 02:33:12;;;;;;;6.90;5.80;;;18.50;63.80;;;;;;5054749;28;20236;-75
2021/06/10 02:35:38;;;;;;;6.57;5.87;;;18.50;63.70;;;;;;5054604;28;20189;-76
2021/06/10 02:38:04;;;;;;;8.53;5.87;;;18.50;63.30;;;;;;5055118;28;20406;-76
2021/06/10 02:40:41;;;;;;;7.23;6.10;;;18.50;62.90;;;;;;5054141;28;20216;-77
2021/06/10 02:43:08;;;;;;;8.47;5.83;;;18.50;62.90;;;;;;5054555;28;21040;-76
2021/06/10 02:45:35;;;;;;;6.67;5.97;;;18.60;62.80;;;;;;5037270;28;20451;-78
2021/06/10 02:48:02;;;;;;;7.37;5.70;;;18.60;62.40;;;;;;5053385;28;20425;-76
2021/06/10 02:50:29;;;;;;;6.57;5.27;;;18.60;62.20;;;;;;5054711;28;20782;-77
2021/06/10 02:52:57;;;;;;;6.47;5.30;;;18.60;62.00;;;;;;5054130;28;20451;-75
2021/06/10 02:55:23;;;;;;;6.23;4.90;;;18.60;61.70;;;;;;5054207;28;20423;-76
2021/06/10 02:57:52;;;;;;;11.23;6.13;;;18.60;61.70;;;;;;5054059;28;20449;-75
2021/06/10 03:00:20;;;;;;;6.63;6.00;;;18.60;62.20;;;;;;5054773;28;20480;-75
2021/06/10 03:02:49;;;;;;;7.43;5.97;;;18.60;62.70;;;;;;5053049;28;20420;-78
2021/06/10 03:05:15;;;;;;;10.93;9.07;;;18.50;62.90;;;;;;5054523;28;20443;-77
2021/06/10 03:07:43;;;;;;;8.50;7.53;;;18.40;63.10;;;;;;5054586;28;20419;-77
2021/06/10 03:10:11;;;;;;;8.70;7.40;;;18.40;63.50;;;;;;5036961;28;20428;-76
2021/06/10 03:12:39;;;;;;;8.17;5.97;;;18.30;63.70;;;;;;5054495;28;20451;-78
2021/06/10 03:15:06;;;;;;;7.30;6.20;;;18.30;63.90;;;;;;5058281;28;20412;-77
2021/06/10 03:17:33;;;;;;;8.67;5.53;;;18.20;63.90;;;;;;5055954;28;20454;-77
2021/06/10 03:19:59;;;;;;;8.00;6.50;;;18.20;64.10;;;;;;5058043;28;20441;-78
2021/06/10 03:22:25;;;;;;;7.50;6.10;;;18.20;64.40;;;;;;5058805;28;20400;-77
2021/06/10 03:24:52;;;;;;;8.13;5.57;;;18.10;64.50;;;;;;5052854;28;20420;-76
2021/06/10 03:27:19;;;;;;;6.80;6.10;;;18.10;64.90;;;;;;5054118;28;20566;-76
2021/06/10 03:29:45;;;;;;;8.47;6.93;;;18.10;65.20;;;;;;5053368;28;20466;-76
2021/06/10 03:32:12;;;;;;;7.27;5.90;;;18.10;65.40;;;;;;5054707;28;20479;-76
2021/06/10 03:34:38;;;;;;;5.67;5.10;;;18.00;65.70;;;;;;5055237;28;20642;-77
2021/06/10 03:37:04;;;;;;;7.33;5.30;;;18.00;66.10;;;;;;5053592;28;20456;-76
2021/06/10 03:39:31;;;;;;;6.70;5.00;;;18.00;66.30;;;;;;5054269;28;20836;-76
2021/06/10 03:41:59;;;;;;;6.43;5.70;;;17.90;66.40;;;;;;5055332;28;20515;-77
2021/06/10 03:44:27;;;;;;;8.93;5.40;;;17.90;66.70;;;;;;5035997;28;20487;-76
2021/06/10 03:46:54;;;;;;;6.60;5.43;;;17.90;66.60;;;;;;5036468;28;20443;-76
2021/06/10 03:49:20;;;;;;;7.60;6.10;;;17.90;66.70;;;;;;5025114;28;20462;-76
2021/06/10 03:51:53;;;;;;;6.53;5.27;;;17.90;67.40;;;;;;5027043;28;20412;-76
2021/06/10 03:54:19;;;;;;;8.17;6.30;;;17.90;66.70;;;;;;5054656;28;20166;-76
2021/06/10 03:56:46;;;;;;;6.60;5.57;;;17.90;66.70;;;;;;5052727;28;20459;-76
2021/06/10 03:59:12;;;;;;;16.57;6.10;;;17.90;66.70;;;;;;5052835;28;20507;-77
2021/06/10 04:01:38;;;;;;;7.20;5.07;;;17.90;66.70;;;;;;5051777;28;20786;-76
2021/06/10 04:04:04;;;;;;;7.30;5.70;;;17.90;66.70;;;;;;5053005;28;20396;-77
2021/06/10 04:06:34;;;;;;;7.33;5.87;;;18.00;66.80;;;;;;5036644;28;20186;-76
2021/06/10 04:09:05;;;;;;;7.67;5.67;;;18.00;66.80;;;;;;5053116;28;20418;-76
2021/06/10 04:11:31;;;;;;;6.87;5.30;;;18.00;66.90;;;;;;5053225;28;20424;-77
2021/06/10 04:13:56;;;;;;;10.50;7.30;;;18.00;66.80;;;;;;5053220;28;20408;-78
2021/06/10 04:16:23;;;;;;;8.00;5.90;;;18.10;66.90;;;;;;5052923;28;21090;-75
2021/06/10 04:18:49;;;;;;;5.93;5.00;;;18.10;66.90;;;;;;5053032;28;20208;-76
2021/06/10 04:21:15;;;;;;;5.43;4.93;;;18.10;66.80;;;;;;5053572;28;20427;-77
2021/06/10 04:23:42;;;;;;;9.83;6.17;;;18.20;66.60;;;;;;5061976;28;20415;-77
2021/06/10 04:26:08;;;;;;;7.20;6.00;;;18.20;66.10;;;;;;5039397;28;20189;-78
2021/06/10 04:28:33;;;;;;;15.90;6.20;;;18.20;65.50;;;;;;5054855;28;20553;-76
2021/06/10 04:30:59;;;;;;;9.93;5.57;;;18.30;65.80;;;;;;5052879;28;20420;-76
2021/06/10 04:33:26;;;;;;;11.67;7.50;;;18.40;65.60;;;;;;5036788;28;20198;-77
2021/06/10 04:35:52;;;;;;;7.30;6.40;;;18.40;65.40;;;;;;5036570;28;20447;-77
2021/06/10 04:38:18;;;;;;;14.60;9.00;;;18.40;64.60;;;;;;5052251;28;20404;-76
2021/06/10 04:40:44;;;;;;;8.10;5.80;;;18.50;64.40;;;;;;5053703;28;20161;-77
2021/06/10 04:43:10;;;;;;;9.77;7.87;;;18.50;64.20;;;;;;5052121;28;20169;-76
2021/06/10 04:45:36;;;;;;;21.43;7.80;;;18.60;64.10;;;;;;5063661;28;20450;-76
2021/06/10 04:48:01;;;;;;;6.93;5.80;;;18.60;62.70;;;;;;5051837;28;20424;-76
2021/06/10 04:50:28;;;;;;;11.13;7.07;;;18.70;62.00;;;;;;5060715;28;20416;-76
2021/06/10 04:52:55;;;;;;;8.97;5.97;;;18.70;62.10;;;;;;5052077;28;20696;-76
2021/06/10 04:55:21;;;;;;;10.50;6.17;;;18.80;62.70;;;;;;5052497;28;20456;-77
2021/06/10 04:57:47;;;;;;;13.53;6.50;;;18.90;63.40;;;;;;5025387;28;20898;-76
2021/06/10 05:00:14;;;;;;;15.30;9.53;;;18.90;64.00;;;;;;5018852;28;20425;-77
2021/06/10 05:02:40;;;;;;;10.10;8.60;;;19.00;64.70;;;;;;5031919;28;20440;-76
2021/06/10 05:05:07;;;;;;;17.37;9.87;;;19.00;65.00;;;;;;5051834;28;20997;-77
2021/06/10 05:07:33;;;;;;;10.70;8.20;;;19.00;65.40;;;;;;5039550;28;20481;-75
2021/06/10 05:09:59;;;;;;;14.70;9.10;;;19.00;65.70;;;;;;5050984;28;20405;-76
2021/06/10 05:12:25;;;;;;;10.57;8.23;;;19.10;66.00;;;;;;5039372;28;20458;-75
2021/06/10 05:14:51;;;;;;;12.13;8.60;;;19.10;65.80;;;;;;5024179;28;20499;-77
2021/06/10 05:17:17;;;;;;;14.20;8.20;;;19.20;65.90;;;;;;5065941;28;20423;-75
2021/06/10 05:19:43;;;;;;;11.40;8.00;;;19.20;65.90;;;;;;5051742;28;20770;-75
2021/06/10 05:22:09;;;;;;;13.80;9.10;;;19.30;66.00;;;;;;5052238;28;20416;-75
2021/06/10 05:24:35;;;;;;;16.10;10.07;;;19.40;65.70;;;;;;5040861;28;20234;-75
2021/06/10 05:27:01;;;;;;;18.60;10.50;;;19.40;65.10;;;;;;5070924;28;20165;-76
2021/06/10 05:29:27;;;;;;;13.90;10.80;;;19.50;64.30;;;;;;5053786;28;20169;-77
2021/06/10 05:31:53;;;;;;;18.50;10.83;;;19.50;64.60;;;;;;5070806;28;20454;-76
2021/06/10 05:34:19;;;;;;;13.20;10.10;;;19.50;64.80;;;;;;5072149;28;20165;-77
2021/06/10 05:36:45;;;;;;;16.43;9.37;;;19.50;65.20;;;;;;5072162;28;20427;-77
2021/06/10 05:39:11;;;;;;;11.67;9.37;;;19.50;65.10;;;;;;5074332;28;20893;-76
2021/06/10 05:41:36;;;;;;;14.43;9.97;;;19.60;65.00;;;;;;5057852;28;20275;-77
2021/06/10 05:44:03;;;;;;;17.07;10.60;;;19.70;64.80;;;;;;5077642;28;20425;-76
2021/06/10 05:46:29;;;;;;;16.83;10.90;;;19.80;64.10;;;;;;5074673;28;20213;-76
2021/06/10 05:48:54;;;;;;;12.83;9.40;;;19.80;64.10;;;;;;5070768;28;20420;-77
2021/06/10 05:51:21;;;;;;;18.90;11.03;;;19.90;64.10;;;;;;5069208;28;20173;-75
2021/06/10 05:53:48;;;;;;;15.63;9.73;;;20.00;63.80;;;;;;5054438;28;20687;-76
2021/06/10 05:56:13;;;;;;;16.47;9.10;;;20.20;62.50;;;;;;5072673;28;20430;-75
2021/06/10 05:58:39;;;;;;;16.40;9.80;;;20.40;61.40;;;;;;5053324;28;20436;-75
2021/06/10 06:01:04;;;;;;;13.80;9.37;;;21.00;59.90;;;;;;5056208;28;20696;-76
2021/06/10 06:03:31;;;;;;;16.53;8.47;;;21.90;58.30;;;;;;5054093;28;20184;-77
2021/06/10 06:05:58;;;;;;;14.77;8.83;;;23.30;55.10;;;;;;5033199;28;20255;-77
2021/06/10 06:08:23;;;;;;;14.50;8.57;;;24.70;52.50;;;;;;5050730;28;20865;-76
2021/06/10 06:10:51;;;;;;;20.03;7.57;;;25.90;50.00;;;;;;5052243;28;20432;-78
2021/06/10 06:13:23;;;;;;;20.93;8.73;;;27.00;47.50;;;;;;5038377;28;20228;-76
2021/06/10 06:15:57;;;;;;;11.73;7.93;;;27.80;45.30;;;;;;5058674;28;20439;-78
2021/06/10 06:18:22;;;;;;;19.00;9.73;;;28.70;43.30;;;;;;5055693;28;20397;-77
2021/06/10 06:20:51;;;;;;;10.90;7.90;;;29.50;41.50;;;;;;5053494;28;20415;-77
2021/06/10 06:23:17;;;;;;;17.10;8.37;;;30.10;40.10;;;;;;5040416;28;20177;-77
2021/06/10 06:25:43;;;;;;;17.57;7.73;;;30.80;39.00;;;;;;5056051;28;20767;-77
2021/06/10 06:28:08;;;;;;;15.37;10.17;;;31.30;38.00;;;;;;5055889;28;20166;-77
2021/06/10 06:30:34;;;;;;;17.40;8.60;;;31.70;37.00;;;;;;5040904;28;20683;-77
2021/06/10 06:33:00;;;;;;;13.37;8.83;;;32.00;35.90;;;;;;5055878;28;20181;-78
2021/06/10 06:35:26;;;;;;;17.73;9.63;;;32.30;35.50;;;;;;5055881;28;20193;-77
2021/06/10 06:37:51;;;;;;;17.03;9.53;;;32.80;34.60;;;;;;5053750;28;20162;-77
2021/06/10 06:40:25;;;;;;;11.53;7.97;;;33.10;33.60;;;;;;5055570;28;20651;-77
2021/06/10 06:42:51;;;;;;;18.50;9.23;;;33.10;32.90;;;;;;5043467;28;20166;-78
2021/06/10 06:45:17;;;;;;;22.50;9.27;;;33.20;32.90;;;;;;5020188;28;20514;-78
2021/06/10 06:47:43;;;;;;;14.63;8.77;;;33.40;32.60;;;;;;5065539;28;20426;-78
2021/06/10 06:50:09;;;;;;;14.67;10.00;;;33.70;32.20;;;;;;5038859;28;20300;-76
2021/06/10 06:52:35;;;;;;;17.07;8.03;;;33.90;31.50;;;;;;5036643;28;20263;-77
2021/06/10 06:55:00;;;;;;;12.37;8.77;;;33.70;31.30;;;;;;5068296;28;20440;-76
2021/06/10 06:57:26;;;;;;;12.83;9.30;;;33.80;31.00;;;;;;5070250;28;20180;-76
2021/06/10 06:59:52;;;;;;;15.83;9.53;;;33.60;31.40;;;;;;5043147;28;20708;-76
2021/06/10 07:02:18;;;;;;;14.00;8.97;;;33.80;31.40;;;;;;5060175;28;20533;-77
2021/06/10 07:04:43;;;;;;;11.30;9.13;;;34.30;30.70;;;;;;5049465;28;20546;-78
2021/06/10 07:07:09;;;;;;;17.60;9.33;;;34.80;30.00;;;;;;5056378;28;20571;-77
2021/06/10 07:09:35;;;;;;;14.20;8.30;;;35.40;29.50;;;;;;5041817;28;20578;-78
2021/06/10 07:12:01;;;;;;;11.67;9.20;;;35.60;29.30;;;;;;5048619;28;20201;-77
2021/06/10 07:14:27;;;;;;;16.27;11.00;;;36.10;28.80;;;;;;5056525;28;20189;-77
2021/06/10 07:16:52;;;;;;;13.13;10.90;;;36.20;28.30;;;;;;5031693;28;20476;-77
2021/06/10 07:19:18;;;;;;;13.67;11.00;;;36.40;28.10;;;;;;5036700;28;20263;-79
2021/06/10 07:21:50;;;;;;;14.33;12.27;;;36.50;27.90;;;;;;5021280;28;20198;-77
2021/06/10 07:24:16;;;;;;;14.27;11.37;;;36.80;27.20;;;;;;5052900;28;20411;-78
2021/06/10 07:26:44;;;;;;;12.33;11.10;;;36.80;27.70;;;;;;5055117;28;20463;-76
2021/06/10 07:29:10;;;;;;;14.33;11.30;;;36.90;27.10;;;;;;5055451;28;20439;-77
2021/06/10 07:31:36;;;;;;;13.60;12.20;;;36.90;27.70;;;;;;5047210;28;21031;-76
2021/06/10 07:34:04;;;;;;;15.00;13.50;;;37.20;26.60;;;;;;5042300;28;20418;-77
2021/06/10 07:36:30;;;;;;;17.80;12.47;;;37.40;26.60;;;;;;5037806;28;20673;-78
2021/06/10 07:38:56;;;;;;;13.20;11.20;;;37.70;26.20;;;;;;5059768;28;20425;-78
2021/06/10 07:41:22;;;;;;;20.33;13.40;;;37.60;26.30;;;;;;5052087;28;20422;-76
2021/06/10 07:43:48;;;;;;;19.17;12.03;;;37.60;26.00;;;;;;5055541;28;20189;-78
2021/06/10 07:46:14;;;;;;;14.90;12.90;;;37.60;26.40;;;;;;5038568;28;20245;-77
2021/06/10 07:48:40;;;;;;;13.20;11.90;;;38.00;25.80;;;;;;5057701;28;20173;-77
2021/06/10 07:51:06;;;;;;;15.30;13.07;;;38.40;25.60;;;;;;5062620;28;20157;-77
2021/06/10 07:53:35;;;;;;;17.17;14.35;;;38.80;25.30;;;;;;5061322;28;20216;-78
2021/06/10 07:56:04;;;;;;;17.33;12.77;;;39.00;24.30;;;;;;5071302;28;20189;-79
2021/06/10 07:58:30;;;;;;;14.38;12.98;;;39.20;24.40;;;;;;5050843;28;20199;-76
2021/06/10 08:00:56;;;;;;;15.25;13.65;;;39.40;24.30;;;;;;5064112;28;20533;-78
2021/06/10 08:03:22;;;;;;;13.77;12.07;;;39.70;24.10;;;;;;5049216;28;20169;-78
2021/06/10 08:05:49;;;;;;;14.98;13.55;;;39.70;23.60;;;;;;5052373;28;20554;-79
2021/06/10 08:08:15;;;;;;;11.52;10.32;;;40.10;23.70;;;;;;5062541;28;20196;-78
2021/06/10 08:10:41;;;;;;;14.18;12.30;;;40.00;22.90;;;;;;5087371;28;20161;-78
2021/06/10 08:13:11;;;;;;;7.95;7.15;;;40.40;22.40;;;;;;5052220;28;20271;-78
2021/06/10 08:15:37;;;;;;;14.75;11.20;;;40.70;21.30;;;;;;5075078;28;20268;-77
2021/06/10 08:18:04;;;;;;;9.40;8.00;;;41.20;21.40;;;;;;5024760;28;20205;-77
2021/06/10 08:20:30;;;;;;;8.77;7.85;;;41.20;21.10;;;;;;5038352;28;20300;-79
2021/06/10 08:23:00;;;;;;;9.35;8.40;;;41.10;20.80;;;;;;5056192;28;20191;-78
2021/06/10 08:25:31;;;;;;;8.68;7.88;;;40.80;20.60;;;;;;5056970;28;20181;-77
2021/06/10 08:27:59;;;;;;;8.93;7.50;;;40.80;20.50;;;;;;5057500;28;20169;-78
2021/06/10 08:30:26;;;;;;;7.88;7.18;;;41.10;20.50;;;;;;5059692;28;20176;-78
2021/06/10 08:32:52;;;;;;;10.70;6.55;;;40.70;21.10;;;;;;5056732;28;20243;-79
2021/06/10 08:35:18;;;;;;;9.23;8.00;;;40.70;20.90;;;;;;5048212;28;20231;-78
2021/06/10 08:37:45;;;;;;;9.52;8.23;;;40.70;21.40;;;;;;5072555;28;20173;-78
2021/06/10 08:40:13;;;;;;;13.80;8.73;;;40.60;21.70;;;;;;5068278;28;20168;-79
2021/06/10 08:42:44;;;;;;;9.90;7.70;;;40.60;21.80;;;;;;5062475;28;20169;-79
2021/06/10 08:45:11;;;;;;;9.50;6.32;;;41.20;21.40;;;;;;5048925;28;20189;-79
2021/06/10 08:47:55;;;;;;;9.45;8.00;;;41.80;21.20;;;;;;5042587;28;20177;-80
2021/06/10 08:50:26;;;;;;;11.57;8.63;;;41.80;20.90;;;;;;5048752;28;20177;-79
2021/06/10 08:52:53;;;;;;;8.52;7.80;;;41.80;20.70;;;;;;5062735;28;20379;-79
2021/06/10 08:55:20;;;;;;;10.85;7.65;;;41.60;21.10;;;;;;5061161;28;20188;-78
2021/06/10 08:57:47;;;;;;;7.75;7.10;;;41.90;20.80;;;;;;5063678;28;20512;-79
2021/06/10 09:00:13;;;;;;;11.20;9.30;;;42.10;20.50;;;;;;5077423;28;20166;-79
2021/06/10 09:02:40;;;;;;;11.50;7.82;;;41.80;20.20;;;;;;5085172;28;20653;-78
2021/06/10 09:05:08;;;;;;;9.63;8.10;;;41.20;20.70;;;;;;5059647;28;20250;-78
2021/06/10 09:07:35;;;;;;;9.02;8.13;;;40.90;20.70;;;;;;5072465;28;20534;-79
2021/06/10 09:10:04;;;;;;;11.48;7.57;;;40.90;21.00;;;;;;5041705;28;20173;-79
2021/06/10 09:12:46;;;;;;;10.40;7.72;;;41.40;20.90;;;;;;5077869;28;20187;-78
2021/06/10 09:15:12;;;;;;;9.27;7.45;;;41.90;20.30;;;;;;5080185;28;20195;-76
2021/06/10 09:17:40;;;;;;;9.15;7.68;;;42.10;20.40;;;;;;5056657;28;20177;-78
2021/06/10 09:20:28;;;;;;;6.97;6.25;;;42.20;19.60;;;;;;5051686;28;20169;-78
2021/06/10 09:23:07;;;;;;;12.48;5.85;;;41.90;20.00;;;;;;5055947;28;20540;-78
2021/06/10 09:25:33;;;;;;;5.93;5.32;;;42.10;20.00;;;;;;5049449;28;20184;-77
2021/06/10 09:28:02;;;;;;;7.72;7.13;;;42.70;19.70;;;;;;5044300;28;20228;-78
2021/06/10 09:30:33;;;;;;;8.02;6.22;;;43.40;19.40;;;;;;5055038;28;20219;-79
2021/06/10 09:33:04;;;;;;;6.85;6.15;;;43.60;19.20;;;;;;5053160;28;20487;-78
2021/06/10 09:35:33;;;;;;;6.35;5.68;;;43.70;18.80;;;;;;5035694;28;20201;-76
2021/06/10 09:38:03;;;;;;;6.60;5.95;;;43.40;18.80;;;;;;5054491;28;20557;-79
2021/06/10 09:40:30;;;;;;;4.32;3.90;;;43.20;19.30;;;;;;5055186;28;20234;-78
2021/06/10 09:42:57;;;;;;;4.60;4.10;;;43.50;18.70;;;;;;5040964;28;20197;-78
2021/06/10 09:45:27;;;;;;;7.05;3.83;;;43.30;18.60;;;;;;5054562;28;20195;-77
2021/06/10 09:48:00;;;;;;;5.15;4.65;;;43.10;18.50;;;;;;5052866;28;20334;-77
2021/06/10 09:50:43;;;;;;;6.75;3.85;;;43.20;18.60;;;;;;5053768;28;20172;-77
2021/06/10 09:53:20;;;;;;;7.28;3.67;;;43.20;18.80;;;;;;5052600;28;20212;-77
2021/06/10 09:55:52;;;;;;;9.13;5.68;;;42.10;19.00;;;;;;5052796;28;20192;-78
2021/06/10 09:58:34;;;;;;;6.03;4.63;;;41.30;19.60;;;;;;5035455;28;20169;-78
2021/06/10 10:01:03;;;;;;;6.28;5.50;;;41.30;20.00;;;;;;5055764;28;20245;-77
2021/06/10 10:03:32;;;;;;;4.97;4.10;;;40.80;19.50;;;;;;5065503;28;20189;-79
2021/06/10 10:06:03;;;;;;;5.55;5.05;;;40.10;20.50;;;;;;5055852;28;20267;-77
2021/06/10 10:08:30;;;;;;;6.63;3.53;;;39.00;21.40;;;;;;5074166;28;20797;-77
2021/06/10 10:10:57;;;;;;;4.35;3.95;;;38.00;22.30;;;;;;5073826;28;20164;-77
2021/06/10 10:13:27;;;;;;;6.22;3.72;;;37.30;23.00;;;;;;5077617;28;20168;-77
2021/06/10 10:15:54;;;;;;;8.13;4.75;;;37.50;22.80;;;;;;5063572;28;20244;-78
2021/06/10 10:18:26;;;;;;;17.92;5.78;;;38.30;22.60;;;;;;5057327;28;20179;-84
2021/06/10 10:20:58;;;;;;;6.32;4.65;;;39.10;22.00;;;;;;5071448;28;20168;-85
2021/06/10 10:23:31;;;;;;;11.55;5.80;;;39.90;21.40;;;;;;5071671;28;20184;-85
2021/06/10 10:25:59;;;;;;;16.98;8.90;;;40.30;21.20;;;;;;5087645;28;20245;-82
2021/06/10 10:28:28;;;;;;;8.15;4.18;;;40.20;21.00;;;;;;5076429;28;20161;-83
2021/06/10 10:30:54;;;;;;;8.90;5.05;;;40.00;21.20;;;;;;5086921;28;20184;-83
2021/06/10 10:33:22;;;;;;;12.98;6.50;;;39.00;21.80;;;;;;5064264;28;20165;-84
2021/06/10 10:36:03;;;;;;;9.67;6.30;;;37.90;22.70;;;;;;5064038;28;20200;-84
2021/06/10 10:38:35;;;;;;;13.83;6.67;;;36.40;24.30;;;;;;5085712;28;20421;-83
2021/06/10 10:41:04;;;;;;;14.87;6.70;;;36.30;24.40;;;;;;5073256;28;20440;-84
2021/06/10 10:43:31;;;;;;;7.83;5.30;;;36.50;24.00;;;;;;5094103;28;20561;-83
2021/06/10 10:46:11;;;;;;;8.53;5.43;;;35.60;24.60;;;;;;5093808;28;20431;-82
2021/06/10 10:48:48;;;;;;;8.03;3.77;;;35.10;25.70;;;;;;5093872;28;20385;-83
2021/06/10 10:51:36;;;;;;;4.43;4.03;;;35.10;25.80;;;;;;5074888;28;20415;-83
2021/06/10 10:54:29;;;;;;;5.50;3.83;;;34.90;26.20;;;;;;5093527;28;20830;-82
2021/06/10 10:56:54;;;;;;;10.87;5.20;;;34.80;26.40;;;;;;5073883;28;20450;-82
2021/06/10 10:59:23;;;;;;;7.20;4.40;;;34.40;26.90;;;;;;5091478;28;20407;-83
2021/06/10 11:02:09;;;;;;;5.60;3.77;;;34.20;27.20;;;;;;5089153;28;20177;-82
2021/06/10 11:04:58;;;;;;;4.00;3.60;;;33.80;27.60;;;;;;5088316;28;20472;-83
2021/06/10 11:07:50;;;;;;;7.90;4.00;;;33.10;28.50;;;;;;5090896;28;20407;-82
2021/06/10 11:10:37;;;;;;;3.87;3.47;;;32.80;28.70;;;;;;5088233;28;20404;-82
2021/06/10 11:13:16;;;;;;;8.20;4.40;;;32.40;29.00;;;;;;5087896;28;20982;-83
2021/06/10 11:15:44;;;;;;;7.83;4.20;;;31.60;29.60;;;;;;5087555;28;20422;-82
2021/06/10 11:18:11;;;;;;;7.40;4.33;;;31.50;30.70;;;;;;5069253;28;20449;-82
2021/06/10 11:20:39;;;;;;;6.37;3.87;;;31.50;30.30;;;;;;5070029;28;20436;-81
2021/06/10 11:23:13;;;;;;;3.57;3.27;;;31.50;30.90;;;;;;5067022;28;20455;-83
2021/06/10 11:26:13;;;;;;;;;;;;;;;;;;;;;
2021/06/10 11:33:07;;;;;;;8.87;3.00;;;31.80;30.60;;;;;;5047848;28;20431;-83
2021/06/10 11:35:40;;;;;;;2.93;2.63;;;31.90;30.20;;;;;;5049573;28;20440;-82
2021/06/10 11:38:18;;;;;;;4.50;3.30;;;31.90;30.00;;;;;;5041752;28;20413;-82
2021/06/10 11:40:47;;;;;;;5.07;3.40;;;31.90;30.00;;;;;;5040657;28;20411;-82
2021/06/10 11:43:17;;;;;;;5.40;3.40;;;31.40;30.50;;;;;;5012160;28;20423;-81
2021/06/10 11:45:50;;;;;;;3.50;3.20;;;31.00;31.20;;;;;;5051319;28;20491;-80
2021/06/10 11:48:46;;;;;;;3.30;3.00;;;30.80;32.00;;;;;;5031091;28;20484;-81
2021/06/10 11:51:22;;;;;;;5.23;3.73;;;30.70;31.60;;;;;;5012117;28;20409;-80
2021/06/10 11:53:50;;;;;;;4.13;3.73;;;30.70;31.20;;;;;;5052535;28;20415;-82
2021/06/10 11:56:29;;;;;;;9.13;5.13;;;30.60;31.10;;;;;;5032374;28;20436;-83
2021/06/10 11:59:23;;;;;;;5.90;3.53;;;30.70;31.30;;;;;;5051549;28;20598;-81
2021/06/10 12:02:06;;;;;;;11.63;4.27;;;30.90;31.20;;;;;;5048035;28;20826;-83
2021/06/10 12:04:34;;;;;;;9.90;3.30;;;31.00;31.30;;;;;;5050516;28;20480;-81
2021/06/10 12:07:05;;;;;;;3.93;3.17;;;30.90;31.50;;;;;;5034065;28;20427;-83
2021/06/10 12:09:31;;;;;;;7.47;4.10;;;30.70;31.80;;;;;;5047639;28;20443;-82
2021/06/10 12:11:57;;;;;;;5.57;3.33;;;30.40;31.90;;;;;;5072778;28;20411;-81
2021/06/10 12:14:35;;;;;;;3.87;3.50;;;30.30;32.60;;;;;;5070860;28;20165;-83
2021/06/10 12:17:01;;;;;;;4.07;3.67;;;30.40;32.40;;;;;;5090440;28;20146;-83
2021/06/10 12:19:27;;;;;;;3.30;2.73;;;30.40;32.00;;;;;;5079078;28;20422;-81
2021/06/10 12:22:03;;;;;;;5.20;3.77;;;30.40;31.40;;;;;;5030301;28;20220;-82
2021/06/10 12:24:42;;;;;;;4.60;3.10;;;30.40;31.00;;;;;;5056814;28;20173;-82
2021/06/10 12:27:16;;;;;;;5.37;3.87;;;30.30;31.40;;;;;;5066753;28;20986;-82
2021/06/10 12:29:51;;;;;;;4.03;2.40;;;30.30;31.50;;;;;;5092667;28;20438;-82
2021/06/10 12:32:29;;;;;;;3.30;2.83;;;30.30;31.60;;;;;;5081422;28;20415;-78
2021/06/10 12:34:57;;;;;;;3.20;2.90;;;30.20;32.50;;;;;;5054975;28;20491;-78
2021/06/10 12:37:23;;;;;;;6.00;3.20;;;30.20;32.80;;;;;;5087224;28;20479;-80
2021/06/10 12:39:49;;;;;;;5.03;3.00;;;30.20;33.00;;;;;;5089467;28;20427;-79
2021/06/10 12:42:15;;;;;;;5.50;3.33;;;30.00;33.00;;;;;;5081902;28;20478;-80
2021/06/10 12:44:41;;;;;;;3.40;3.07;;;29.90;33.20;;;;;;5076457;28;20157;-79
2021/06/10 12:47:06;;;;;;;5.90;4.10;;;29.80;33.50;;;;;;5068924;28;20197;-80
2021/06/10 12:49:35;;;;;;;4.40;3.30;;;29.70;33.80;;;;;;5072791;28;20411;-79
2021/06/10 12:52:12;;;;;;;4.50;3.27;;;29.60;33.90;;;;;;5069460;28;20230;-80
2021/06/10 12:54:40;;;;;;;7.20;4.00;;;29.60;34.10;;;;;;5073773;28;20440;-80
2021/06/10 12:57:17;;;;;;;5.23;3.23;;;29.70;34.20;;;;;;5080263;28;20416;-78